createdAt,value
2022-08-19T00:00:31.272Z,7.00
2022-08-19T00:03:18.479Z,7.20
2022-08-19T00:06:05.371Z,7.70
2022-08-19T00:08:52.394Z,7.65
2022-08-19T00:11:39.519Z,7.32
2022-08-19T00:14:32.338Z,7.10
2022-08-19T00:17:19.495Z,7.18
2022-08-19T00:20:07.657Z,7.00
2022-08-19T00:22:56.485Z,7.57
2022-08-19T00:25:43.300Z,7.50
2022-08-19T00:28:36.723Z,7.78
2022-08-19T00:31:26.408Z,7.82
2022-08-19T00:34:16.215Z,7.30
2022-08-19T00:37:03.135Z,7.55
2022-08-19T00:40:07.643Z,7.82
2022-08-19T00:42:54.828Z,7.68
2022-08-19T00:45:45.106Z,7.35
2022-08-19T00:48:33.089Z,7.50
2022-08-19T00:51:23.170Z,7.07
2022-08-19T00:54:10.312Z,7.55
2022-08-19T00:56:57.133Z,6.93
2022-08-19T00:59:56.557Z,7.30
2022-08-19T01:02:49.512Z,7.97
2022-08-19T01:05:37.562Z,7.93
2022-08-19T01:08:24.447Z,7.97
2022-08-19T01:11:11.431Z,7.32
2022-08-19T01:14:01.578Z,7.40
2022-08-19T01:16:48.546Z,7.25
2022-08-19T01:19:43.741Z,7.68
2022-08-19T01:22:57.197Z,7.25
2022-08-19T01:25:53.091Z,7.50
2022-08-19T01:28:42.351Z,7.43
2022-08-19T01:31:33.448Z,7.60
2022-08-19T01:34:20.546Z,7.20
2022-08-19T01:37:14.753Z,7.32
2022-08-19T01:40:12.693Z,7.30
2022-08-19T01:43:00.630Z,8.10
2022-08-19T01:45:47.633Z,7.90
2022-08-19T01:48:41.959Z,7.63
2022-08-19T01:51:28.833Z,7.22
2022-08-19T01:54:27.601Z,7.68
2022-08-19T01:57:16.959Z,7.15
2022-08-19T02:00:08.009Z,7.55
2022-08-19T02:02:55.380Z,7.85
2022-08-19T02:05:42.806Z,7.53
2022-08-19T02:08:31.027Z,7.30
2022-08-19T02:11:24.470Z,8.13
2022-08-19T02:14:11.406Z,7.50
2022-08-19T02:16:58.348Z,7.90
2022-08-19T02:19:45.174Z,7.53
2022-08-19T02:22:31.995Z,7.35
2022-08-19T02:25:18.926Z,7.07
2022-08-19T02:28:08.583Z,7.38
2022-08-19T02:30:55.371Z,8.25
2022-08-19T02:33:42.686Z,7.80
2022-08-19T02:36:29.479Z,7.22
2022-08-19T02:39:17.183Z,7.00
2022-08-19T02:42:04.161Z,7.20
2022-08-19T02:44:52.769Z,7.53
2022-08-19T02:47:39.829Z,7.45
2022-08-19T02:50:26.740Z,6.53
2022-08-19T02:53:17.503Z,7.50
2022-08-19T02:56:07.880Z,7.47
2022-08-19T02:58:56.037Z,7.40
2022-08-19T03:01:43.503Z,7.28
2022-08-19T03:04:30.659Z,7.17
2022-08-19T03:07:17.912Z,7.78
2022-08-19T03:10:05.358Z,7.30
2022-08-19T03:12:52.254Z,7.57
2022-08-19T03:15:49.181Z,7.65
2022-08-19T03:18:35.964Z,7.20
2022-08-19T03:21:25.861Z,7.40
2022-08-19T03:24:14.503Z,7.32
2022-08-19T03:27:01.473Z,7.90
2022-08-19T03:30:00.424Z,6.90
2022-08-19T03:32:48.224Z,7.32
2022-08-19T03:35:40.340Z,7.80
2022-08-19T03:38:27.204Z,7.38
2022-08-19T03:41:19.768Z,6.88
2022-08-19T03:44:06.754Z,7.40
2022-08-19T03:47:00.617Z,7.47
2022-08-19T03:49:48.929Z,7.57
2022-08-19T03:52:36.853Z,7.30
2022-08-19T03:55:23.648Z,6.50
2022-08-19T03:58:14.031Z,7.68
2022-08-19T04:01:00.844Z,7.43
2022-08-19T04:03:48.532Z,7.47
2022-08-19T04:06:39.737Z,7.43
2022-08-19T04:09:27.076Z,7.70
2022-08-19T04:12:13.997Z,7.28
2022-08-19T04:15:00.880Z,7.28
2022-08-19T04:17:47.714Z,7.03
2022-08-19T04:20:41.101Z,7.13
2022-08-19T04:23:29.063Z,7.57
2022-08-19T04:26:20.951Z,7.28
2022-08-19T04:29:12.763Z,7.20
2022-08-19T04:32:00.242Z,7.18
2022-08-19T04:35:01.112Z,7.18
2022-08-19T04:37:49.460Z,6.95
2022-08-19T04:41:04.405Z,7.28
2022-08-19T04:43:51.717Z,7.35
2022-08-19T04:46:40.200Z,7.32
2022-08-19T04:49:38.004Z,7.35
2022-08-19T04:52:24.805Z,7.63
2022-08-19T04:55:17.253Z,7.35
2022-08-19T04:58:04.130Z,7.13
2022-08-19T05:00:51.055Z,6.70
2022-08-19T05:03:39.094Z,7.00
2022-08-19T05:06:26.390Z,6.68
2022-08-19T05:09:13.154Z,6.90
2022-08-19T05:12:01.271Z,7.10
2022-08-19T05:14:48.801Z,7.38
2022-08-19T05:17:38.750Z,6.85
2022-08-19T05:21:04.152Z,7.07
2022-08-19T05:23:50.937Z,7.22
2022-08-19T05:26:39.012Z,7.13
2022-08-19T05:29:27.723Z,6.97
2022-08-19T05:32:24.285Z,6.90
2022-08-19T05:35:12.428Z,6.97
2022-08-19T05:37:59.256Z,7.10
2022-08-19T05:40:47.953Z,7.53
2022-08-19T05:43:34.935Z,8.18
2022-08-19T05:46:27.722Z,7.75
2022-08-19T05:49:16.716Z,8.10
2022-08-19T05:52:05.795Z,8.07
2022-08-19T05:54:52.959Z,8.18
2022-08-19T05:57:40.318Z,7.43
2022-08-19T06:00:27.092Z,7.68
2022-08-19T06:03:14.002Z,7.88
2022-08-19T06:06:01.246Z,8.15
2022-08-19T06:08:51.648Z,7.18
2022-08-19T06:11:41.513Z,7.40
2022-08-19T06:14:31.752Z,7.55
2022-08-19T06:17:20.323Z,7.43
2022-08-19T06:20:12.817Z,7.38
2022-08-19T06:23:00.019Z,7.03
2022-08-19T06:25:48.869Z,7.25
2022-08-19T06:28:35.800Z,7.88
2022-08-19T06:31:25.939Z,6.78
2022-08-19T06:34:13.504Z,6.70
2022-08-19T06:37:43.805Z,7.32
2022-08-19T06:41:22.489Z,7.80
2022-08-19T06:44:13.249Z,6.30
2022-08-19T06:47:00.402Z,7.25
2022-08-19T06:52:23.656Z,7.00
2022-08-19T06:55:46.293Z,6.78
2022-08-19T06:58:45.719Z,6.97
2022-08-19T07:06:44.129Z,7.07
2022-08-19T07:30:41.798Z,6.47
2022-08-19T07:33:33.483Z,7.00
2022-08-19T07:36:23.922Z,6.88
2022-08-19T07:39:17.144Z,6.60
2022-08-19T07:42:08.084Z,6.55
2022-08-19T07:44:54.999Z,6.97
2022-08-19T07:47:58.366Z,6.72
2022-08-19T07:50:45.696Z,6.95
2022-08-19T07:53:39.686Z,6.68
2022-08-19T07:56:26.967Z,6.82
2022-08-19T07:59:14.244Z,6.97
2022-08-19T08:02:01.624Z,6.60
2022-08-19T08:05:07.183Z,6.30
2022-08-19T08:08:13.924Z,6.93
2022-08-19T08:11:01.305Z,6.35
2022-08-19T08:14:00.556Z,6.68
2022-08-19T08:16:52.422Z,6.30
2022-08-19T08:19:42.166Z,6.38
2022-08-19T08:22:47.831Z,6.35
2022-08-19T08:25:36.499Z,6.65
2022-08-19T08:31:10.507Z,5.88
2022-08-19T08:33:57.423Z,5.70
2022-08-19T08:36:48.685Z,6.25
2022-08-19T08:39:35.879Z,6.75
2022-08-19T08:42:33.922Z,6.88
2022-08-19T08:45:21.769Z,6.47
2022-08-19T08:48:32.282Z,6.30
2022-08-19T08:51:33.083Z,6.93
2022-08-19T08:54:25.353Z,6.95
2022-08-19T08:57:17.011Z,7.00
2022-08-19T09:00:15.464Z,6.95
2022-08-19T09:03:06.729Z,7.10
2022-08-19T09:06:01.464Z,6.65
2022-08-19T09:09:11.768Z,7.10
2022-08-19T09:12:11.669Z,7.13
2022-08-19T09:23:16.331Z,7.35
2022-08-19T09:26:08.812Z,7.60
2022-08-19T09:28:59.047Z,7.45
2022-08-19T09:31:45.900Z,7.65
2022-08-19T09:34:37.953Z,7.50
2022-08-19T09:37:28.336Z,6.80
2022-08-19T09:40:16.971Z,7.00
2022-08-19T09:43:13.250Z,6.65
2022-08-19T09:46:01.595Z,6.72
2022-08-19T09:48:49.722Z,6.90
2022-08-19T09:51:36.802Z,6.95
2022-08-19T09:54:25.161Z,6.55
2022-08-19T09:57:12.248Z,6.75
2022-08-19T09:59:59.396Z,6.95
2022-08-19T10:02:46.265Z,6.72
2022-08-19T10:05:55.436Z,6.57
2022-08-19T10:08:49.976Z,7.10
2022-08-19T10:11:43.694Z,7.10
2022-08-19T10:17:26.712Z,6.78
2022-08-19T10:20:18.350Z,6.55
2022-08-19T10:23:05.456Z,6.60
2022-08-19T10:25:54.991Z,7.20
2022-08-19T10:28:42.722Z,6.53
2022-08-19T10:32:00.968Z,6.40
2022-08-19T10:34:48.197Z,6.47
2022-08-19T10:37:37.896Z,6.72
2022-08-19T10:40:36.594Z,6.90
2022-08-19T10:43:23.563Z,7.03
2022-08-19T10:46:14.146Z,6.45
2022-08-19T10:49:05.073Z,6.53
2022-08-19T10:52:10.391Z,6.82
2022-08-19T10:55:25.847Z,6.07
2022-08-19T10:58:23.288Z,6.28
2022-08-19T11:01:10.228Z,6.30
2022-08-19T11:03:58.329Z,6.43
2022-08-19T11:06:46.300Z,6.25
2022-08-19T11:09:34.208Z,6.35
2022-08-19T11:12:21.415Z,5.80
2022-08-19T11:15:09.870Z,6.40
2022-08-19T11:17:57.393Z,6.88
2022-08-19T11:20:46.423Z,6.40
2022-08-19T11:23:33.590Z,6.18
2022-08-19T11:26:21.878Z,6.38
2022-08-19T11:29:13.930Z,5.93
2022-08-19T11:32:02.439Z,6.60
2022-08-19T11:34:49.476Z,5.85
2022-08-19T11:37:38.249Z,6.70
2022-08-19T11:40:25.538Z,6.15
2022-08-19T11:43:12.368Z,6.50
2022-08-19T11:45:59.307Z,6.82
2022-08-19T11:48:46.158Z,5.95
2022-08-19T11:51:33.044Z,6.35
2022-08-19T11:54:19.889Z,6.13
2022-08-19T11:57:06.732Z,6.40
2022-08-19T11:59:53.663Z,6.18
2022-08-19T12:02:40.962Z,6.55
2022-08-19T12:05:27.789Z,5.97
2022-08-19T12:08:15.234Z,6.28
2022-08-19T12:11:02.414Z,6.23
2022-08-19T12:13:49.254Z,6.00
2022-08-19T12:16:37.793Z,6.30
2022-08-19T12:19:27.864Z,6.15
2022-08-19T12:22:14.670Z,5.93
2022-08-19T12:25:01.790Z,6.15
2022-08-19T12:27:56.792Z,6.07
2022-08-19T12:30:44.304Z,6.47
2022-08-19T12:33:32.852Z,6.20
2022-08-19T12:36:19.689Z,5.95
2022-08-19T12:39:07.517Z,6.50
2022-08-19T12:41:57.753Z,6.13
2022-08-19T12:44:45.101Z,5.93
2022-08-19T12:47:32.511Z,6.10
2022-08-19T12:50:22.565Z,6.18
2022-08-19T12:53:09.418Z,5.53
2022-08-19T12:55:58.013Z,5.97
2022-08-19T12:58:50.520Z,6.32
2022-08-19T13:01:40.331Z,6.03
2022-08-19T13:04:27.222Z,6.40
2022-08-19T13:07:14.138Z,6.00
2022-08-19T13:10:01.065Z,6.18
2022-08-19T13:12:49.838Z,6.07
2022-08-19T13:15:40.980Z,6.03
2022-08-19T13:18:27.787Z,6.07
2022-08-19T13:21:15.181Z,5.70
2022-08-19T13:24:02.225Z,6.10
2022-08-19T13:26:49.130Z,6.03
2022-08-19T13:29:54.881Z,5.93
2022-08-19T13:33:00.319Z,5.75
2022-08-19T13:35:55.984Z,6.38
2022-08-19T13:38:42.791Z,5.53
2022-08-19T13:41:29.810Z,5.15
2022-08-19T13:44:19.249Z,5.47
2022-08-19T13:47:07.658Z,5.13
2022-08-19T13:52:42.163Z,4.55
2022-08-19T13:55:29.027Z,4.70
2022-08-19T13:58:15.918Z,5.03
2022-08-19T14:01:02.905Z,5.30
2022-08-19T14:03:50.221Z,5.40
2022-08-19T14:06:37.082Z,5.65
2022-08-19T14:09:23.953Z,5.18
2022-08-19T14:12:10.748Z,5.35
2022-08-19T14:14:57.520Z,5.70
2022-08-19T14:17:47.441Z,5.07
2022-08-19T14:20:37.688Z,5.25
2022-08-19T14:23:24.511Z,5.55
2022-08-19T14:26:14.488Z,5.25
2022-08-19T14:29:02.331Z,5.25
2022-08-19T14:31:49.352Z,5.20
2022-08-19T14:34:38.338Z,5.88
2022-08-19T14:37:25.175Z,5.60
2022-08-19T14:40:13.233Z,5.72
2022-08-19T14:43:04.822Z,5.75
2022-08-19T14:45:52.144Z,5.88
2022-08-19T14:48:41.423Z,5.78
2022-08-19T14:51:30.973Z,5.43
2022-08-19T14:54:18.202Z,5.82
2022-08-19T14:57:05.267Z,6.32
2022-08-19T15:00:06.804Z,5.95
2022-08-19T15:03:14.510Z,5.50
2022-08-19T15:06:06.041Z,5.72
2022-08-19T15:08:54.274Z,6.03
2022-08-19T15:11:41.072Z,6.03
2022-08-19T15:14:29.223Z,6.32
2022-08-19T15:17:16.011Z,5.90
2022-08-19T15:20:03.251Z,6.43
2022-08-19T15:22:50.483Z,6.47
2022-08-19T15:25:37.970Z,6.63
2022-08-19T15:28:26.282Z,6.55
2022-08-19T15:31:24.016Z,6.32
2022-08-19T15:34:12.457Z,5.93
2022-08-19T15:37:00.091Z,7.00
2022-08-19T15:39:47.087Z,6.43
2022-08-19T15:42:36.136Z,6.63
2022-08-19T15:45:23.035Z,6.75
2022-08-19T15:48:09.918Z,7.13
2022-08-19T15:50:56.740Z,6.78
2022-08-19T15:53:43.741Z,6.50
2022-08-19T15:57:05.646Z,6.60
2022-08-19T16:00:13.316Z,6.43
2022-08-19T16:03:30.757Z,6.68
2022-08-19T16:06:28.444Z,5.75
2022-08-19T16:09:36.366Z,6.13
2022-08-19T16:12:27.520Z,5.75
2022-08-19T16:15:16.626Z,5.20
2022-08-19T16:18:04.380Z,5.57
2022-08-19T16:20:51.452Z,5.28
2022-08-19T16:23:38.463Z,5.57
2022-08-19T16:26:29.416Z,5.57
2022-08-19T16:29:27.796Z,5.90
2022-08-19T16:32:22.022Z,5.05
2022-08-19T16:35:09.401Z,5.13
2022-08-19T16:37:56.356Z,4.82
2022-08-19T16:40:46.685Z,4.88
2022-08-19T16:43:35.803Z,5.15
2022-08-19T16:46:23.289Z,5.18
2022-08-19T16:49:14.850Z,4.93
2022-08-19T16:52:03.466Z,5.18
2022-08-19T16:54:50.391Z,4.97
2022-08-19T16:57:37.670Z,4.72
2022-08-19T17:00:24.531Z,5.03
2022-08-19T17:03:14.990Z,5.30
2022-08-19T17:06:03.587Z,5.07
2022-08-19T17:08:54.330Z,5.55
2022-08-19T17:11:41.174Z,5.10
2022-08-19T17:14:28.003Z,5.35
2022-08-19T17:17:15.373Z,5.20
2022-08-19T17:20:04.850Z,5.10
2022-08-19T17:22:51.658Z,4.85
2022-08-19T17:25:38.559Z,4.45
2022-08-19T17:28:28.977Z,5.15
2022-08-19T17:31:15.966Z,4.57
2022-08-19T17:34:02.934Z,4.50
2022-08-19T17:36:50.641Z,4.57
2022-08-19T17:39:39.842Z,4.50
2022-08-19T17:42:29.850Z,4.40
2022-08-19T17:45:20.639Z,3.90
2022-08-19T17:48:11.441Z,4.43
2022-08-19T17:50:59.866Z,3.95
2022-08-19T17:56:33.346Z,3.35
2022-08-19T17:59:20.154Z,3.83
2022-08-19T18:02:13.246Z,4.05
2022-08-19T18:05:00.380Z,3.80
2022-08-19T18:07:51.487Z,4.00
2022-08-19T18:10:49.921Z,4.13
2022-08-19T18:13:42.737Z,4.50
2022-08-19T18:16:38.618Z,4.18
2022-08-19T18:19:42.151Z,4.03
2022-08-19T18:22:51.935Z,3.70
2022-08-19T18:25:42.014Z,3.90
2022-08-19T18:28:37.684Z,3.85
2022-08-19T18:31:24.590Z,4.28
2022-08-19T18:34:11.692Z,4.13
2022-08-19T18:37:01.237Z,4.00
2022-08-19T18:40:06.720Z,4.10
2022-08-19T18:43:12.551Z,4.05
2022-08-19T18:46:19.296Z,3.90
2022-08-19T18:49:09.124Z,4.50
2022-08-19T18:51:56.853Z,4.25
2022-08-19T18:54:46.786Z,4.10
2022-08-19T18:57:33.918Z,4.13
2022-08-19T19:00:20.886Z,4.10
2022-08-19T19:03:08.464Z,4.10
2022-08-19T19:05:58.786Z,4.30
2022-08-19T19:08:48.836Z,4.05
2022-08-19T19:11:38.412Z,4.50
2022-08-19T19:14:48.752Z,4.75
2022-08-19T19:17:36.926Z,4.60
2022-08-19T19:20:25.239Z,4.20
2022-08-19T19:23:23.724Z,4.40
2022-08-19T19:26:13.518Z,4.32
2022-08-19T19:29:04.803Z,4.30
2022-08-19T19:31:54.545Z,4.63
2022-08-19T19:34:44.460Z,4.47
2022-08-19T19:37:31.666Z,4.43
2022-08-19T19:40:59.455Z,5.03
2022-08-19T19:44:57.815Z,4.88
2022-08-19T19:48:16.366Z,4.65
2022-08-19T19:51:29.380Z,4.80
2022-08-19T19:54:59.273Z,4.55
2022-08-19T19:57:57.955Z,4.95
2022-08-19T20:01:21.671Z,5.10
2022-08-19T20:04:30.898Z,5.25
2022-08-19T20:08:17.279Z,4.90
2022-08-19T20:11:45.972Z,4.88
2022-08-19T20:17:42.952Z,5.18
2022-08-19T20:20:30.372Z,5.55
2022-08-19T20:23:18.254Z,5.15
2022-08-19T20:26:06.754Z,5.15
2022-08-19T20:29:08.879Z,4.93
2022-08-19T20:32:00.754Z,5.78
2022-08-19T20:34:49.096Z,5.20
2022-08-19T20:37:38.994Z,5.53
2022-08-19T20:40:26.920Z,5.90
2022-08-19T20:43:14.007Z,5.75
2022-08-19T20:46:02.585Z,5.47
2022-08-19T20:51:39.214Z,4.57
2022-08-19T20:54:26.948Z,5.50
2022-08-19T20:57:13.780Z,5.93
2022-08-19T21:00:00.611Z,5.88
2022-08-19T21:02:47.419Z,5.55
2022-08-19T21:05:41.622Z,5.63
2022-08-19T21:08:31.026Z,5.43
2022-08-19T21:11:20.636Z,5.68
2022-08-19T21:14:07.811Z,5.53
2022-08-19T21:16:54.606Z,5.35
2022-08-19T21:19:44.381Z,5.88
2022-08-19T21:22:31.263Z,5.50
2022-08-19T21:25:18.269Z,4.97
2022-08-19T21:28:05.966Z,5.47
2022-08-19T21:30:55.378Z,5.23
2022-08-19T21:33:42.805Z,5.32
2022-08-19T21:36:29.955Z,5.38
2022-08-19T21:39:17.099Z,5.82
2022-08-19T21:42:07.405Z,5.40
2022-08-19T21:44:54.502Z,5.20
2022-08-19T21:47:41.357Z,5.22
2022-08-19T21:50:28.829Z,5.25
2022-08-19T21:53:17.425Z,5.50
2022-08-19T21:56:06.336Z,4.97
2022-08-19T21:58:56.489Z,5.30
2022-08-19T22:01:48.739Z,4.68
2022-08-19T22:04:40.902Z,4.78
2022-08-19T22:07:27.738Z,4.93
2022-08-19T22:10:14.523Z,4.70
2022-08-19T22:13:01.617Z,4.45
2022-08-19T22:15:53.521Z,4.20
2022-08-19T22:18:40.332Z,3.97
2022-08-19T22:21:40.179Z,4.28
2022-08-19T22:24:27.832Z,4.10
2022-08-19T22:27:14.598Z,3.90
2022-08-19T22:30:01.469Z,4.20
2022-08-19T22:32:56.194Z,3.65
2022-08-19T22:35:44.848Z,3.60
2022-08-19T22:38:34.646Z,3.70
2022-08-19T22:41:21.451Z,3.90
2022-08-19T22:44:11.816Z,3.30
2022-08-19T22:46:58.616Z,3.60
2022-08-19T22:49:45.450Z,3.90
2022-08-19T22:52:35.223Z,4.07
2022-08-19T22:55:24.592Z,4.00
2022-08-19T22:58:11.406Z,3.65
2022-08-19T23:00:58.342Z,3.60
2022-08-19T23:03:45.988Z,3.63
2022-08-19T23:06:38.133Z,3.55
2022-08-19T23:09:30.458Z,3.25
2022-08-19T23:12:52.446Z,3.35
2022-08-19T23:15:41.035Z,3.53
2022-08-19T23:18:30.586Z,3.45
2022-08-19T23:21:17.577Z,3.47
2022-08-19T23:24:04.689Z,3.25
2022-08-19T23:27:10.176Z,3.20
2022-08-19T23:30:15.523Z,2.97
2022-08-19T23:33:12.706Z,3.33
2022-08-19T23:36:02.498Z,3.28
2022-08-19T23:38:51.943Z,3.15
2022-08-19T23:41:38.784Z,3.35
2022-08-19T23:44:25.819Z,3.20
2022-08-19T23:47:16.608Z,3.17
2022-08-19T23:50:06.666Z,2.78
2022-08-19T23:52:56.613Z,2.80
2022-08-19T23:55:46.479Z,2.97
2022-08-19T23:58:35.238Z,2.88
